createdAt,value
2022-12-04T00:02:25.257Z,81.23
2022-12-04T00:05:12.126Z,81.20
2022-12-04T00:07:58.969Z,80.93
2022-12-04T00:10:45.810Z,81.27
2022-12-04T00:13:32.561Z,80.99
2022-12-04T00:16:19.690Z,81.09
2022-12-04T00:19:06.859Z,81.38
2022-12-04T00:21:53.645Z,80.99
2022-12-04T00:24:40.410Z,81.17
2022-12-04T00:27:27.181Z,81.27
2022-12-04T00:30:13.935Z,81.21
2022-12-04T00:33:00.695Z,81.36
2022-12-04T00:35:47.476Z,81.35
2022-12-04T00:38:34.437Z,81.16
2022-12-04T00:41:21.253Z,81.33
2022-12-04T00:44:08.062Z,81.35
2022-12-04T00:46:54.858Z,81.36
2022-12-04T00:49:41.598Z,80.73
2022-12-04T00:52:28.451Z,80.97
2022-12-04T00:55:15.256Z,81.20
2022-12-04T00:58:01.996Z,81.08
2022-12-04T01:00:48.874Z,81.20
2022-12-04T01:03:35.901Z,81.00
2022-12-04T01:06:23.630Z,80.95
2022-12-04T01:09:12.134Z,81.07
2022-12-04T01:11:58.912Z,81.31
2022-12-04T01:14:45.690Z,80.98
2022-12-04T01:17:32.436Z,80.83
2022-12-04T01:20:19.190Z,80.96
2022-12-04T01:23:05.926Z,81.18
2022-12-04T01:25:52.761Z,80.97
2022-12-04T01:28:39.810Z,80.97
2022-12-04T01:31:30.014Z,81.24
2022-12-04T01:34:17.299Z,80.76
2022-12-04T01:37:04.053Z,81.13
2022-12-04T01:39:30.945Z,81.15
2022-12-04T01:42:17.715Z,81.20
2022-12-04T01:45:53.776Z,80.84
2022-12-04T01:48:48.438Z,81.13
2022-12-04T01:51:46.362Z,81.08
2022-12-04T01:54:42.367Z,81.13
2022-12-04T01:57:40.791Z,80.82
2022-12-04T02:00:35.327Z,81.11
2022-12-04T02:03:22.276Z,80.98
2022-12-04T02:06:09.041Z,81.11
2022-12-04T02:08:56.897Z,81.01
2022-12-04T02:11:56.769Z,81.23
2022-12-04T02:15:20.264Z,80.87
2022-12-04T02:18:13.083Z,81.21
2022-12-04T02:21:17.409Z,80.81
2022-12-04T02:24:22.333Z,80.87
2022-12-04T02:27:22.072Z,80.98
2022-12-04T02:30:16.002Z,81.07
2022-12-04T02:33:07.334Z,80.82
2022-12-04T02:36:04.268Z,80.91
2022-12-04T02:38:57.544Z,80.79
2022-12-04T02:42:24.738Z,81.19
2022-12-04T02:45:19.993Z,80.89
2022-12-04T02:48:07.405Z,80.69
2022-12-04T02:51:00.520Z,81.13
2022-12-04T02:54:01.749Z,80.78
2022-12-04T02:56:56.152Z,80.89
2022-12-04T02:59:49.634Z,80.82
2022-12-04T03:02:52.734Z,80.77
2022-12-04T03:05:45.375Z,80.86
2022-12-04T03:08:37.634Z,80.82
2022-12-04T03:11:25.066Z,80.97
2022-12-04T03:14:19.500Z,80.95
2022-12-04T03:17:08.430Z,80.79
2022-12-04T03:20:01.905Z,80.86
2022-12-04T03:22:51.627Z,80.82
2022-12-04T03:25:38.623Z,80.98
2022-12-04T03:28:31.070Z,81.02
2022-12-04T03:31:27.937Z,80.81
2022-12-04T03:34:17.830Z,80.94
2022-12-04T03:37:14.558Z,80.67
2022-12-04T03:40:13.109Z,80.92
2022-12-04T03:43:07.335Z,80.81
2022-12-04T03:46:07.419Z,80.79
2022-12-04T03:49:19.080Z,80.70
2022-12-04T03:52:12.492Z,80.63
2022-12-04T03:55:13.909Z,80.90
2022-12-04T03:58:04.602Z,81.05
2022-12-04T04:00:53.264Z,81.06
2022-12-04T04:03:48.371Z,80.65
2022-12-04T04:06:42.277Z,80.61
2022-12-04T04:09:34.321Z,80.92
2022-12-04T04:12:28.537Z,80.80
2022-12-04T04:15:20.133Z,80.88
2022-12-04T04:18:07.815Z,80.60
2022-12-04T04:20:57.730Z,80.87
2022-12-04T04:23:45.813Z,80.91
2022-12-04T04:26:34.197Z,80.84
2022-12-04T04:29:21.335Z,80.51
2022-12-04T04:32:26.215Z,80.79
2022-12-04T04:35:23.713Z,80.74
2022-12-04T04:38:31.847Z,80.93
2022-12-04T04:41:18.551Z,80.44
2022-12-04T04:44:16.012Z,81.11
2022-12-04T04:47:10.985Z,81.14
2022-12-04T04:50:00.474Z,80.56
2022-12-04T04:52:48.572Z,80.71
2022-12-04T04:55:37.844Z,80.76
2022-12-04T04:58:38.521Z,80.75
2022-12-04T05:01:31.385Z,81.18
2022-12-04T05:04:18.186Z,80.46
2022-12-04T05:07:04.938Z,80.84
2022-12-04T05:09:51.695Z,81.02
2022-12-04T05:12:38.549Z,80.93
2022-12-04T05:15:25.712Z,81.12
2022-12-04T05:18:12.454Z,80.74
2022-12-04T05:21:00.275Z,80.62
2022-12-04T05:23:47.121Z,81.02
2022-12-04T05:26:33.890Z,80.51
2022-12-04T05:29:20.736Z,80.89
2022-12-04T05:32:07.502Z,80.66
2022-12-04T05:34:54.505Z,80.58
2022-12-04T05:37:42.217Z,81.09
2022-12-04T05:40:29.507Z,80.44
2022-12-04T05:43:17.308Z,80.78
2022-12-04T05:46:04.072Z,80.49
2022-12-04T05:48:51.447Z,80.34
2022-12-04T05:51:38.270Z,80.68
2022-12-04T05:54:25.048Z,80.86
2022-12-04T05:57:12.102Z,80.27
2022-12-04T05:59:58.978Z,80.29
2022-12-04T06:02:45.889Z,80.48
2022-12-04T06:05:32.867Z,80.78
2022-12-04T06:08:19.724Z,80.30
2022-12-04T06:11:06.523Z,80.81
2022-12-04T06:13:53.318Z,80.17
2022-12-04T06:16:42.671Z,80.69
2022-12-04T06:19:33.032Z,81.17
2022-12-04T06:22:19.789Z,80.39
2022-12-04T06:25:06.722Z,80.51
2022-12-04T06:27:53.750Z,80.34
2022-12-04T06:30:40.931Z,80.13
2022-12-04T06:33:27.672Z,80.39
2022-12-04T06:36:25.497Z,80.27
2022-12-04T06:39:18.648Z,79.95
2022-12-04T06:42:06.123Z,80.52
2022-12-04T06:44:52.882Z,80.40
2022-12-04T06:47:39.708Z,80.31
2022-12-04T06:50:27.299Z,80.24
2022-12-04T06:53:14.054Z,80.55
2022-12-04T06:56:07.762Z,80.38
2022-12-04T06:58:55.034Z,80.15
2022-12-04T07:01:45.316Z,80.33
2022-12-04T07:04:32.057Z,80.29
2022-12-04T07:07:18.888Z,80.31
2022-12-04T07:10:05.733Z,80.20
2022-12-04T07:12:52.581Z,80.01
2022-12-04T07:15:39.349Z,80.28
2022-12-04T07:18:26.121Z,80.18
2022-12-04T07:21:12.869Z,80.19
2022-12-04T07:23:59.638Z,79.91
2022-12-04T07:26:47.853Z,80.47
2022-12-04T07:29:34.813Z,80.42
2022-12-04T07:32:21.574Z,80.03
2022-12-04T07:35:08.349Z,80.26
2022-12-04T07:37:57.922Z,79.92
2022-12-04T07:40:45.091Z,79.72
2022-12-04T07:43:31.872Z,79.94
2022-12-04T07:46:19.668Z,79.78
2022-12-04T07:49:06.676Z,80.18
2022-12-04T07:51:53.421Z,79.89
2022-12-04T07:54:40.157Z,80.31
2022-12-04T07:57:26.896Z,79.80
2022-12-04T08:00:13.638Z,79.82
2022-12-04T08:03:00.470Z,79.79
2022-12-04T08:05:47.232Z,80.14
2022-12-04T08:08:34.025Z,79.74
2022-12-04T08:11:21.509Z,79.96
2022-12-04T08:14:08.676Z,79.42
2022-12-04T08:16:55.611Z,79.77
2022-12-04T08:19:42.455Z,79.79
2022-12-04T08:22:29.321Z,79.72
2022-12-04T08:25:16.379Z,79.58
2022-12-04T08:28:03.147Z,79.53
2022-12-04T08:30:49.969Z,79.72
2022-12-04T08:33:36.764Z,79.64
2022-12-04T08:36:27.452Z,79.76
2022-12-04T08:39:14.522Z,79.68
2022-12-04T08:42:01.381Z,79.74
2022-12-04T08:44:48.161Z,79.84
2022-12-04T08:47:35.135Z,79.57
2022-12-04T08:50:22.318Z,79.15
2022-12-04T08:53:09.149Z,79.41
2022-12-04T08:55:55.894Z,79.06
2022-12-04T08:58:43.599Z,79.31
2022-12-04T09:01:33.076Z,79.89
2022-12-04T09:04:19.962Z,80.00
2022-12-04T09:07:06.749Z,79.54
2022-12-04T09:09:53.509Z,79.24
2022-12-04T09:12:40.316Z,79.86
2022-12-04T09:15:28.249Z,79.76
2022-12-04T09:18:15.021Z,79.60
2022-12-04T09:21:01.809Z,79.73
2022-12-04T09:23:49.569Z,79.11
2022-12-04T09:26:41.523Z,79.22
2022-12-04T09:29:28.481Z,79.71
2022-12-04T09:32:15.294Z,79.55
2022-12-04T09:35:02.070Z,79.31
2022-12-04T09:37:48.858Z,79.00
2022-12-04T09:40:46.035Z,79.00
2022-12-04T09:43:51.283Z,79.47
2022-12-04T09:46:51.679Z,79.56
2022-12-04T09:49:47.626Z,79.47
2022-12-04T09:53:11.980Z,79.70
2022-12-04T09:56:16.070Z,78.90
2022-12-04T09:59:07.270Z,78.74
2022-12-04T10:02:20.735Z,79.54
2022-12-04T10:05:07.704Z,79.03
2022-12-04T10:08:24.902Z,78.91
2022-12-04T10:11:53.488Z,79.55
2022-12-04T10:15:03.824Z,78.84
2022-12-04T10:18:09.081Z,79.52
2022-12-04T10:21:10.902Z,79.36
2022-12-04T10:24:25.543Z,78.96
2022-12-04T10:27:17.262Z,78.79
2022-12-04T12:22:38.393Z,79.23
2022-12-04T12:26:06.474Z,79.55
2022-12-04T12:29:04.758Z,79.49
2022-12-04T12:32:07.763Z,78.65
2022-12-04T12:34:54.529Z,79.40
2022-12-04T12:38:04.200Z,79.44
2022-12-04T12:41:08.831Z,79.45
2022-12-04T12:43:57.583Z,78.78
2022-12-04T12:46:54.721Z,79.01
2022-12-04T12:49:47.833Z,78.72
2022-12-04T12:52:44.906Z,78.66
2022-12-04T12:55:42.707Z,78.74
2022-12-04T12:58:38.136Z,78.78
2022-12-04T13:01:39.901Z,79.67
2022-12-04T13:04:52.209Z,79.30
2022-12-04T13:07:38.971Z,78.89
2022-12-04T13:10:51.991Z,79.08
2022-12-04T13:13:48.430Z,78.82
2022-12-04T13:16:58.549Z,79.59
2022-12-04T13:19:54.651Z,79.80
2022-12-04T13:22:56.602Z,79.36
2022-12-04T13:26:06.360Z,78.62
2022-12-04T13:29:17.784Z,79.55
2022-12-04T13:32:26.801Z,79.41
2022-12-04T13:35:38.390Z,79.19
2022-12-04T13:38:41.196Z,79.60
2022-12-04T13:41:36.118Z,78.66
2022-12-04T13:44:41.163Z,78.56
2022-12-04T13:47:33.006Z,78.59
2022-12-04T13:50:40.148Z,78.83
2022-12-04T13:53:50.675Z,79.34
2022-12-04T13:56:46.440Z,79.84
2022-12-04T13:59:48.152Z,79.24
2022-12-04T14:02:46.975Z,79.43
2022-12-04T14:05:34.525Z,78.80
2022-12-04T14:08:26.328Z,79.20
2022-12-04T14:11:38.614Z,79.59
2022-12-04T14:14:26.661Z,79.89
2022-12-04T14:17:15.053Z,78.48
2022-12-04T14:20:07.999Z,79.79
2022-12-04T14:22:57.839Z,79.14
2022-12-04T14:25:53.976Z,79.28
2022-12-04T14:28:53.167Z,79.39
2022-12-04T14:31:57.371Z,79.75
2022-12-04T14:34:50.935Z,78.86
2022-12-04T14:37:44.598Z,78.85
2022-12-04T14:41:05.554Z,78.70
2022-12-04T14:43:59.699Z,79.17
2022-12-04T14:47:01.657Z,79.43
2022-12-04T14:49:55.986Z,78.53
2022-12-04T14:52:52.942Z,79.65
2022-12-04T14:55:52.331Z,79.03
2022-12-04T14:58:51.934Z,79.64
2022-12-04T15:01:45.331Z,78.85
2022-12-04T15:04:49.128Z,79.82
2022-12-04T15:07:45.195Z,79.01
2022-12-04T15:10:40.905Z,79.13
2022-12-04T15:13:28.065Z,79.31
2022-12-04T15:16:14.924Z,78.66
2022-12-04T15:19:01.740Z,78.98
2022-12-04T15:21:59.860Z,78.93
2022-12-04T15:24:46.609Z,78.71
2022-12-04T15:27:35.588Z,78.65
2022-12-04T15:30:23.289Z,79.21
2022-12-04T15:33:17.767Z,78.80
2022-12-04T15:36:15.987Z,79.63
2022-12-04T15:39:03.154Z,79.44
2022-12-04T15:41:55.171Z,79.27
2022-12-04T15:44:43.948Z,78.62
2022-12-04T15:47:45.753Z,79.45
2022-12-04T15:50:35.306Z,79.60
2022-12-04T15:53:46.463Z,79.28
2022-12-04T15:56:20.027Z,78.86
2022-12-04T15:59:18.192Z,79.66
2022-12-04T16:02:05.104Z,79.67
2022-12-04T16:04:51.959Z,79.38
2022-12-04T16:07:42.388Z,78.53
2022-12-04T16:10:44.410Z,79.61
2022-12-04T16:13:47.653Z,79.36
2022-12-04T16:16:37.586Z,78.80
2022-12-04T16:19:37.154Z,79.02
2022-12-04T16:22:30.824Z,78.64
2022-12-04T16:25:17.583Z,79.23
2022-12-04T16:28:04.427Z,79.26
2022-12-04T16:30:53.792Z,79.22
2022-12-04T16:33:40.563Z,79.38
2022-12-04T16:36:30.059Z,78.97
2022-12-04T16:39:16.845Z,79.12
2022-12-04T16:42:03.612Z,79.35
2022-12-04T16:44:50.372Z,79.41
2022-12-04T16:47:37.701Z,79.58
2022-12-04T16:50:24.907Z,78.73
2022-12-04T16:53:12.183Z,79.39
2022-12-04T16:55:59.867Z,78.73
2022-12-04T16:58:46.622Z,79.70
2022-12-04T17:01:41.912Z,79.61
2022-12-04T17:04:29.761Z,79.30
2022-12-04T17:07:16.674Z,79.15
2022-12-04T17:10:03.425Z,79.09
2022-12-04T17:12:50.210Z,78.73
2022-12-04T17:15:36.982Z,79.59
2022-12-04T17:18:23.919Z,78.82
2022-12-04T17:21:10.695Z,79.60
2022-12-04T17:23:57.873Z,78.56
2022-12-04T17:26:44.667Z,78.60
2022-12-04T17:29:31.462Z,78.59
2022-12-04T17:32:18.204Z,78.73
2022-12-04T17:35:05.015Z,79.56
2022-12-04T17:37:59.324Z,79.60
2022-12-04T17:40:48.967Z,79.22
2022-12-04T17:43:35.692Z,78.74
2022-12-04T17:46:28.061Z,78.92
2022-12-04T17:49:16.349Z,79.13
2022-12-04T17:52:03.270Z,78.94
2022-12-04T17:54:50.036Z,79.45
2022-12-04T17:57:37.043Z,79.45
2022-12-04T18:00:24.465Z,78.54
2022-12-04T18:03:11.310Z,79.29
2022-12-04T18:05:58.084Z,78.38
2022-12-04T18:08:49.741Z,78.98
2022-12-04T18:11:37.800Z,79.32
2022-12-04T18:14:27.154Z,79.03
2022-12-04T18:17:15.631Z,79.37
2022-12-04T18:20:04.878Z,78.56
2022-12-04T18:22:52.499Z,78.87
2022-12-04T18:25:41.315Z,79.24
2022-12-04T18:28:28.089Z,79.27
2022-12-04T18:31:14.903Z,78.89
2022-12-04T18:34:02.498Z,79.10
2022-12-04T18:36:51.036Z,78.70
2022-12-04T18:39:43.364Z,78.72
2022-12-04T18:42:30.100Z,78.31
2022-12-04T18:45:16.859Z,79.11
2022-12-04T18:48:03.604Z,79.24
2022-12-04T18:51:10.331Z,79.09
2022-12-04T18:54:20.245Z,78.96
2022-12-04T18:57:27.086Z,79.12
2022-12-04T19:00:34.183Z,78.44
2022-12-04T19:03:40.958Z,79.29
2022-12-04T19:06:57.134Z,78.36
2022-12-04T19:10:11.576Z,78.20
2022-12-04T19:13:18.481Z,79.01
2022-12-04T19:16:30.390Z,78.75
2022-12-04T19:19:37.387Z,78.54
2022-12-04T19:22:44.225Z,78.90
2022-12-04T19:25:50.932Z,78.57
2022-12-04T19:28:57.725Z,79.42
2022-12-04T19:32:04.510Z,79.15
2022-12-04T19:35:11.328Z,78.69
2022-12-04T19:38:18.050Z,78.69
2022-12-04T19:41:30.885Z,78.72
2022-12-04T19:44:48.297Z,78.10
2022-12-04T19:47:55.457Z,79.16
2022-12-04T19:51:03.075Z,78.32
2022-12-04T19:54:10.433Z,78.01
2022-12-04T19:57:17.189Z,79.30
2022-12-04T20:00:24.667Z,79.40
2022-12-04T20:03:31.511Z,79.28
2022-12-04T20:06:41.914Z,79.19
2022-12-04T20:09:52.448Z,79.00
2022-12-04T20:12:59.506Z,78.10
2022-12-04T20:16:06.241Z,78.61
2022-12-04T20:19:13.751Z,78.97
2022-12-04T20:22:20.473Z,79.43
2022-12-04T20:25:27.561Z,79.34
2022-12-04T20:28:34.319Z,78.49
2022-12-04T20:31:46.773Z,78.54
2022-12-04T20:34:53.504Z,79.25
2022-12-04T20:38:00.260Z,78.00
2022-12-04T20:41:06.994Z,78.01
2022-12-04T20:44:14.075Z,78.90
2022-12-04T20:47:20.827Z,79.31
2022-12-04T20:50:28.015Z,78.94
2022-12-04T20:53:34.937Z,79.06
2022-12-04T20:56:42.006Z,78.67
2022-12-04T20:59:48.758Z,78.57
2022-12-04T21:02:56.231Z,78.37
2022-12-04T21:06:09.462Z,78.34
2022-12-04T21:09:16.743Z,78.29
2022-12-04T21:12:24.123Z,78.57
2022-12-04T21:15:29.520Z,78.67
2022-12-04T21:18:16.250Z,79.03
2022-12-04T21:21:24.262Z,78.58
2022-12-04T21:24:32.787Z,78.16
2022-12-04T21:27:39.498Z,78.17
2022-12-04T21:30:46.296Z,78.90
2022-12-04T21:33:54.497Z,78.39
2022-12-04T21:37:02.635Z,79.18
2022-12-04T21:40:09.457Z,78.61
2022-12-04T21:43:16.192Z,78.53
2022-12-04T21:46:08.854Z,79.02
2022-12-04T21:48:56.098Z,77.97
2022-12-04T21:51:59.121Z,77.99
2022-12-04T21:54:47.565Z,78.01
2022-12-04T21:57:34.361Z,79.10
2022-12-04T22:00:21.104Z,78.91
2022-12-04T22:03:07.941Z,78.32
2022-12-04T22:05:54.794Z,78.50
2022-12-04T22:08:41.561Z,79.07
2022-12-04T22:11:30.384Z,78.55
2022-12-04T22:14:17.151Z,77.95
2022-12-04T22:17:03.893Z,78.60
2022-12-04T22:19:50.704Z,78.44
2022-12-04T22:22:37.438Z,78.84
2022-12-04T22:25:44.164Z,78.67
2022-12-04T22:28:50.871Z,79.01
2022-12-04T22:31:57.583Z,78.90
2022-12-04T22:35:04.346Z,79.09
2022-12-04T22:38:11.287Z,77.98
2022-12-04T22:41:20.163Z,78.30
2022-12-04T22:44:26.877Z,78.65
2022-12-04T22:47:33.666Z,78.43
2022-12-04T22:50:40.434Z,78.32
2022-12-04T22:53:47.149Z,78.48
2022-12-04T22:56:54.168Z,78.00
2022-12-04T23:00:00.885Z,78.05
2022-12-04T23:03:07.776Z,78.40
2022-12-04T23:06:14.537Z,78.18
2022-12-04T23:09:28.631Z,78.23
2022-12-04T23:12:35.385Z,78.14
2022-12-04T23:15:42.131Z,77.83
2022-12-04T23:18:49.290Z,78.38
2022-12-04T23:21:57.368Z,78.23
2022-12-04T23:25:04.324Z,77.81
2022-12-04T23:28:11.059Z,78.68
2022-12-04T23:31:18.118Z,78.46
2022-12-04T23:34:26.113Z,78.27
2022-12-04T23:37:32.856Z,78.12
2022-12-04T23:40:39.597Z,78.81
2022-12-04T23:43:46.480Z,78.29
2022-12-04T23:46:53.538Z,78.49
2022-12-04T23:50:00.567Z,77.88
2022-12-04T23:53:07.423Z,78.37
2022-12-04T23:56:28.675Z,78.08
2022-12-04T23:59:35.426Z,78.60
